createdAt,value
2018-07-24T00:00:40.534Z,2.20
2018-07-24T00:01:40.528Z,2.10
2018-07-24T00:02:40.511Z,2.20
2018-07-24T00:03:40.499Z,2.00
2018-07-24T00:04:40.490Z,2.30
2018-07-24T00:05:40.485Z,2.20
2018-07-24T00:06:40.464Z,2.20
2018-07-24T00:07:40.455Z,2.10
2018-07-24T00:08:40.442Z,2.50
2018-07-24T00:09:40.430Z,2.50
2018-07-24T00:10:40.427Z,3.70
2018-07-24T00:11:40.407Z,3.50
2018-07-24T00:12:40.400Z,2.00
2018-07-24T00:13:40.383Z,2.40
2018-07-24T00:14:40.371Z,3.10
2018-07-24T00:15:40.362Z,2.10
2018-07-24T00:16:40.347Z,2.90
2018-07-24T00:17:40.335Z,3.80
2018-07-24T00:18:40.325Z,2.20
2018-07-24T00:19:40.311Z,2.50
2018-07-24T00:20:40.300Z,2.30
2018-07-24T00:21:40.288Z,3.40
2018-07-24T00:22:40.277Z,2.20
2018-07-24T00:23:40.273Z,2.40
2018-07-24T00:24:40.254Z,2.30
2018-07-24T00:25:40.241Z,2.70
2018-07-24T00:26:40.227Z,3.20
2018-07-24T00:27:40.218Z,1.80
2018-07-24T00:28:40.205Z,2.30
2018-07-24T00:29:40.193Z,2.70
2018-07-24T00:30:40.181Z,2.20
2018-07-24T00:31:40.172Z,2.50
2018-07-24T00:32:40.155Z,2.40
2018-07-24T00:33:40.145Z,2.10
2018-07-24T00:34:40.132Z,2.60
2018-07-24T00:35:40.121Z,2.40
2018-07-24T00:36:40.108Z,2.60
2018-07-24T00:37:40.095Z,2.10
2018-07-24T00:38:40.084Z,2.40
2018-07-24T00:39:40.076Z,2.40
2018-07-24T00:40:40.063Z,2.40
2018-07-24T00:41:40.048Z,2.40
2018-07-24T00:42:40.035Z,3.30
2018-07-24T00:43:40.023Z,3.00
2018-07-24T00:44:40.011Z,3.00
2018-07-24T00:45:40.007Z,2.20
2018-07-24T00:46:39.989Z,2.50
2018-07-24T00:47:40.047Z,2.70
2018-07-24T00:48:39.965Z,2.20
2018-07-24T00:49:39.950Z,4.10
2018-07-24T00:50:39.940Z,2.90
2018-07-24T00:51:39.925Z,3.00
2018-07-24T00:52:39.913Z,2.60
2018-07-24T00:53:39.907Z,3.10
2018-07-24T00:54:39.889Z,3.30
2018-07-24T00:55:39.881Z,3.00
2018-07-24T00:56:39.864Z,3.10
2018-07-24T00:57:39.856Z,3.10
2018-07-24T00:58:39.842Z,3.00
2018-07-24T00:59:39.828Z,3.60
2018-07-24T01:00:39.815Z,2.90
2018-07-24T01:01:39.804Z,2.60
2018-07-24T01:02:39.791Z,3.20
2018-07-24T01:03:39.779Z,3.00
2018-07-24T01:04:39.766Z,2.30
2018-07-24T01:05:39.755Z,4.30
2018-07-24T01:06:39.743Z,2.40
2018-07-24T01:07:39.732Z,2.90
2018-07-24T01:08:39.775Z,2.80
2018-07-24T01:09:39.731Z,3.10
2018-07-24T01:10:39.692Z,2.40
2018-07-24T01:11:39.679Z,2.70
2018-07-24T01:12:39.671Z,2.40
2018-07-24T01:13:39.655Z,2.50
2018-07-24T01:14:39.642Z,2.60
2018-07-24T01:15:39.628Z,2.40
2018-07-24T01:16:39.616Z,2.60
2018-07-24T01:17:39.606Z,3.40
2018-07-24T01:18:39.592Z,2.70
2018-07-24T01:19:39.580Z,2.40
2018-07-24T01:20:39.566Z,2.40
2018-07-24T01:21:39.553Z,2.50
2018-07-24T01:22:39.542Z,2.60
2018-07-24T01:23:39.532Z,2.60
2018-07-24T01:24:39.518Z,2.50
2018-07-24T01:25:39.503Z,2.80
2018-07-24T01:26:39.491Z,3.50
2018-07-24T01:27:39.478Z,2.50
2018-07-24T01:28:39.468Z,3.40
2018-07-24T01:29:39.453Z,2.70
2018-07-24T01:30:39.440Z,2.50
2018-07-24T01:31:39.429Z,2.60
2018-07-24T01:32:39.419Z,2.60
2018-07-24T01:33:39.404Z,3.70
2018-07-24T01:34:39.390Z,3.00
2018-07-24T01:35:39.381Z,2.90
2018-07-24T01:36:39.369Z,2.60
2018-07-24T01:37:39.353Z,4.40
2018-07-24T01:38:39.349Z,2.40
2018-07-24T01:39:39.326Z,3.20
2018-07-24T01:40:39.313Z,2.90
2018-07-24T01:41:39.300Z,2.90
2018-07-24T01:42:39.289Z,2.80
2018-07-24T01:43:39.275Z,3.10
2018-07-24T01:44:39.262Z,2.90
2018-07-24T01:45:39.252Z,3.30
2018-07-24T01:46:39.237Z,3.20
2018-07-24T01:47:39.226Z,3.10
2018-07-24T01:48:39.211Z,2.90
2018-07-24T01:49:39.198Z,3.10
2018-07-24T01:50:39.185Z,3.00
2018-07-24T01:51:39.172Z,2.90
2018-07-24T01:52:39.160Z,3.00
2018-07-24T01:53:39.148Z,3.20
2018-07-24T01:54:39.139Z,3.60
2018-07-24T01:55:39.121Z,3.20
2018-07-24T01:56:39.108Z,3.90
2018-07-24T01:57:39.094Z,3.50
2018-07-24T01:58:39.083Z,3.00
2018-07-24T01:59:39.070Z,3.50
2018-07-24T02:00:39.058Z,3.00
2018-07-24T02:01:39.048Z,3.70
2018-07-24T02:02:39.035Z,3.10
2018-07-24T02:03:39.017Z,3.90
2018-07-24T02:04:39.005Z,3.50
2018-07-24T02:05:38.992Z,3.10
2018-07-24T02:06:38.984Z,3.40
2018-07-24T02:07:38.966Z,3.80
2018-07-24T02:08:38.953Z,3.20
2018-07-24T02:09:38.940Z,3.40
2018-07-24T02:10:38.928Z,3.30
2018-07-24T02:11:38.916Z,4.20
2018-07-24T02:12:38.901Z,2.90
2018-07-24T02:13:38.887Z,3.60
2018-07-24T02:14:38.875Z,3.10
2018-07-24T02:15:38.862Z,2.80
2018-07-24T02:16:38.853Z,3.20
2018-07-24T02:17:38.838Z,3.10
2018-07-24T02:18:38.822Z,3.60
2018-07-24T02:19:38.809Z,4.00
2018-07-24T02:20:38.801Z,3.20
2018-07-24T02:21:38.791Z,3.60
2018-07-24T02:22:38.770Z,3.80
2018-07-24T02:23:38.757Z,3.10
2018-07-24T02:24:38.744Z,3.50
2018-07-24T02:25:38.734Z,3.50
2018-07-24T02:26:38.726Z,3.50
2018-07-24T02:27:38.705Z,4.30
2018-07-24T02:28:38.691Z,3.70
2018-07-24T02:29:38.678Z,3.80
2018-07-24T02:30:38.665Z,4.50
2018-07-24T02:31:38.653Z,4.50
2018-07-24T02:32:38.638Z,3.60
2018-07-24T02:33:38.627Z,3.80
2018-07-24T02:34:38.613Z,4.50
2018-07-24T02:35:38.601Z,4.30
2018-07-24T02:36:38.590Z,4.80
2018-07-24T02:37:38.573Z,4.30
2018-07-24T02:38:38.560Z,3.60
2018-07-24T02:39:38.551Z,4.30
2018-07-24T02:40:38.534Z,3.90
2018-07-24T02:41:38.525Z,3.70
2018-07-24T02:42:38.506Z,3.70
2018-07-24T02:43:38.494Z,3.40
2018-07-24T02:44:38.482Z,3.70
2018-07-24T02:45:38.470Z,3.40
2018-07-24T02:46:38.454Z,3.20
2018-07-24T02:47:38.441Z,3.50
2018-07-24T02:48:38.429Z,4.20
2018-07-24T02:49:38.414Z,3.50
2018-07-24T02:50:38.402Z,4.00
2018-07-24T02:51:38.387Z,3.80
2018-07-24T02:52:38.376Z,3.90
2018-07-24T02:53:38.413Z,4.40
2018-07-24T02:54:38.346Z,3.90
2018-07-24T02:55:38.336Z,3.80
2018-07-24T02:56:38.320Z,3.60
2018-07-24T02:57:38.307Z,3.70
2018-07-24T02:58:38.292Z,3.80
2018-07-24T02:59:38.281Z,3.40
2018-07-24T03:00:38.268Z,3.40
2018-07-24T03:01:38.253Z,3.70
2018-07-24T03:02:38.240Z,4.30
2018-07-24T03:03:38.228Z,3.70
2018-07-24T03:04:38.216Z,3.90
2018-07-24T03:05:38.199Z,4.50
2018-07-24T03:06:38.193Z,4.00
2018-07-24T03:07:38.171Z,3.50
2018-07-24T03:08:38.159Z,3.80
2018-07-24T03:09:38.151Z,4.00
2018-07-24T03:10:38.132Z,3.80
2018-07-24T03:11:38.118Z,3.70
2018-07-24T03:12:38.104Z,4.60
2018-07-24T03:13:38.095Z,4.60
2018-07-24T03:14:38.080Z,4.10
2018-07-24T03:15:38.064Z,4.30
2018-07-24T03:16:38.051Z,3.60
2018-07-24T03:17:38.040Z,5.00
2018-07-24T03:18:38.026Z,4.00
2018-07-24T03:19:38.011Z,4.20
2018-07-24T03:20:38.002Z,3.90
2018-07-24T03:21:37.984Z,3.80
2018-07-24T03:22:37.971Z,3.60
2018-07-24T03:23:37.956Z,5.50
2018-07-24T03:24:37.944Z,3.60
2018-07-24T03:25:37.930Z,3.80
2018-07-24T03:26:37.916Z,3.70
2018-07-24T03:27:37.902Z,4.70
2018-07-24T03:28:37.889Z,4.00
2018-07-24T03:29:37.876Z,4.40
2018-07-24T03:30:37.864Z,4.10
2018-07-24T03:31:37.852Z,3.70
2018-07-24T03:32:37.837Z,4.70
2018-07-24T03:33:37.822Z,5.10
2018-07-24T03:34:37.805Z,4.10
2018-07-24T03:35:37.793Z,4.10
2018-07-24T03:36:37.782Z,4.80
2018-07-24T03:37:37.766Z,4.60
2018-07-24T03:38:37.753Z,4.10
2018-07-24T03:39:37.749Z,3.90
2018-07-24T03:40:37.725Z,4.20
2018-07-24T03:41:37.711Z,3.90
2018-07-24T03:42:37.701Z,4.70
2018-07-24T03:43:37.686Z,3.70
2018-07-24T03:44:37.670Z,4.20
2018-07-24T03:45:37.661Z,4.90
2018-07-24T03:46:37.642Z,5.10
2018-07-24T03:47:37.634Z,5.40
2018-07-24T03:48:37.620Z,4.80
2018-07-24T03:49:37.607Z,4.50
2018-07-24T03:50:37.590Z,4.60
2018-07-24T03:51:37.575Z,4.30
2018-07-24T03:52:37.561Z,4.10
2018-07-24T03:53:37.550Z,4.20
2018-07-24T03:54:37.537Z,4.60
2018-07-24T03:55:37.526Z,4.80
2018-07-24T03:56:37.511Z,4.50
2018-07-24T03:57:37.496Z,4.60
2018-07-24T03:58:37.481Z,4.40
2018-07-24T03:59:37.465Z,4.60
2018-07-24T04:00:37.458Z,4.20
2018-07-24T04:01:37.440Z,4.40
2018-07-24T04:02:37.425Z,4.20
2018-07-24T04:03:37.413Z,3.90
2018-07-24T04:04:37.401Z,4.10
2018-07-24T04:05:37.385Z,4.30
2018-07-24T04:06:37.369Z,4.40
2018-07-24T04:07:37.361Z,3.80
2018-07-24T04:08:37.345Z,4.30
2018-07-24T04:09:37.329Z,4.00
2018-07-24T04:10:37.315Z,4.30
2018-07-24T04:11:37.302Z,4.00
2018-07-24T04:12:37.290Z,3.70
2018-07-24T04:13:37.278Z,4.30
2018-07-24T04:14:37.259Z,4.60
2018-07-24T04:15:37.248Z,4.50
2018-07-24T04:16:37.234Z,4.30
2018-07-24T04:17:37.221Z,4.40
2018-07-24T04:18:37.209Z,4.50
2018-07-24T04:19:37.202Z,5.40
2018-07-24T04:20:37.179Z,4.40
2018-07-24T04:21:37.167Z,4.10
2018-07-24T04:22:37.152Z,4.80
2018-07-24T04:23:37.139Z,4.60
2018-07-24T04:24:37.123Z,5.10
2018-07-24T04:25:37.111Z,5.20
2018-07-24T04:26:37.097Z,4.50
2018-07-24T04:27:37.090Z,4.50
2018-07-24T04:28:37.069Z,4.50
2018-07-24T04:29:37.063Z,4.40
2018-07-24T04:30:37.043Z,5.20
2018-07-24T04:31:37.030Z,4.40
2018-07-24T04:32:37.015Z,4.60
2018-07-24T04:33:37.005Z,4.70
2018-07-24T04:34:36.988Z,6.10
2018-07-24T04:35:36.975Z,8.50
2018-07-24T04:36:36.959Z,7.90
2018-07-24T04:37:36.948Z,6.60
2018-07-24T04:38:36.933Z,7.50
2018-07-24T04:39:36.918Z,8.90
2018-07-24T04:40:36.909Z,5.50
2018-07-24T04:41:36.894Z,9.60
2018-07-24T04:42:36.877Z,6.10
2018-07-24T04:43:36.865Z,5.00
2018-07-24T04:44:36.855Z,5.20
2018-07-24T04:45:36.839Z,6.90
2018-07-24T04:46:36.823Z,6.70
2018-07-24T04:47:36.811Z,6.60
2018-07-24T04:48:36.803Z,6.10
2018-07-24T04:49:36.787Z,6.40
2018-07-24T04:50:36.768Z,7.30
2018-07-24T04:51:36.756Z,5.50
2018-07-24T04:52:36.742Z,6.20
2018-07-24T04:53:36.730Z,6.50
2018-07-24T04:54:36.721Z,6.20
2018-07-24T04:55:36.703Z,5.10
2018-07-24T04:56:36.690Z,6.20
2018-07-24T04:57:36.683Z,7.90
2018-07-24T04:58:36.665Z,6.10
2018-07-24T04:59:36.647Z,6.40
2018-07-24T05:00:36.635Z,5.60
2018-07-24T05:01:36.625Z,6.50
2018-07-24T05:02:36.629Z,5.70
2018-07-24T05:03:36.596Z,7.00
2018-07-24T05:04:36.583Z,6.70
2018-07-24T05:05:36.568Z,6.20
2018-07-24T05:06:36.592Z,6.00
2018-07-24T05:07:36.541Z,6.30
2018-07-24T05:08:36.531Z,7.30
2018-07-24T05:09:36.572Z,7.80
2018-07-24T05:10:36.607Z,7.20
2018-07-24T05:11:36.487Z,7.70
2018-07-24T05:12:36.473Z,6.90
2018-07-24T05:13:36.461Z,7.40
2018-07-24T05:14:36.450Z,6.80
2018-07-24T05:15:36.440Z,9.10
2018-07-24T05:16:36.432Z,9.50
2018-07-24T05:17:36.408Z,11.00
2018-07-24T05:18:36.393Z,9.80
2018-07-24T05:19:36.382Z,398.40
2018-07-24T05:20:36.372Z,347.50
2018-07-24T05:21:36.355Z,1088.90
2018-07-24T05:22:36.350Z,961.60
2018-07-24T05:23:36.372Z,965.20
2018-07-24T05:24:36.320Z,252.80
2018-07-24T05:25:36.303Z,92.40
2018-07-24T05:26:36.289Z,47.30
2018-07-24T05:27:36.278Z,49.10
2018-07-24T05:28:36.264Z,20.40
2018-07-24T05:29:36.254Z,23.80
2018-07-24T05:30:36.238Z,26.90
2018-07-24T05:31:36.226Z,8.20
2018-07-24T05:32:36.219Z,10.80
2018-07-24T05:33:36.200Z,8.40
2018-07-24T05:34:36.187Z,8.80
2018-07-24T05:35:36.175Z,7.20
2018-07-24T05:36:36.161Z,10.10
2018-07-24T05:37:36.149Z,15.90
2018-07-24T05:38:36.139Z,11.00
2018-07-24T05:39:36.122Z,13.50
2018-07-24T05:40:36.113Z,106.60
2018-07-24T05:41:36.098Z,168.50
2018-07-24T05:42:36.085Z,164.90
2018-07-24T05:43:36.072Z,71.30
2018-07-24T05:44:36.063Z,21.40
2018-07-24T05:45:36.046Z,15.50
2018-07-24T05:46:36.032Z,11.10
2018-07-24T05:47:36.021Z,20.30
2018-07-24T05:48:36.043Z,19.00
2018-07-24T05:49:35.999Z,11.50
2018-07-24T05:50:35.991Z,6.10
2018-07-24T05:51:35.967Z,6.70
2018-07-24T05:52:35.958Z,4.60
2018-07-24T05:53:35.945Z,5.00
2018-07-24T05:54:35.932Z,5.40
2018-07-24T05:55:35.922Z,4.90
2018-07-24T05:56:35.907Z,4.70
2018-07-24T05:57:35.896Z,4.10
2018-07-24T05:58:35.895Z,6.00
2018-07-24T05:59:35.872Z,14.40
2018-07-24T06:00:35.860Z,4.30
2018-07-24T06:01:35.848Z,4.50
2018-07-24T06:02:35.834Z,5.20
2018-07-24T06:03:35.822Z,3.90
2018-07-24T06:04:35.812Z,4.00
2018-07-24T06:05:35.802Z,4.80
2018-07-24T06:06:35.788Z,9.20
2018-07-24T06:07:35.773Z,42.80
2018-07-24T06:08:35.759Z,19.60
2018-07-24T06:09:35.749Z,6.40
2018-07-24T06:10:35.736Z,4.60
2018-07-24T06:11:35.731Z,3.90
2018-07-24T06:12:35.711Z,5.90
2018-07-24T06:13:35.700Z,5.80
2018-07-24T06:14:35.688Z,4.60
2018-07-24T06:15:35.673Z,4.20
2018-07-24T06:16:35.687Z,3.20
2018-07-24T06:17:35.651Z,4.10
2018-07-24T06:18:35.645Z,3.30
2018-07-24T06:19:35.628Z,2.70
2018-07-24T06:20:35.616Z,3.60
2018-07-24T06:21:35.610Z,3.20
2018-07-24T06:22:35.593Z,4.30
2018-07-24T06:23:35.603Z,9.50
2018-07-24T06:24:35.568Z,3.10
2018-07-24T06:25:35.559Z,2.80
2018-07-24T06:26:35.548Z,4.60
2018-07-24T06:27:35.534Z,5.10
2018-07-24T06:28:35.521Z,3.60
2018-07-24T06:29:35.514Z,3.10
2018-07-24T06:30:35.499Z,3.60
2018-07-24T06:31:35.486Z,3.70
2018-07-24T06:32:35.474Z,3.60
2018-07-24T06:33:35.463Z,72.00
2018-07-24T06:34:35.450Z,36.80
2018-07-24T06:35:35.440Z,6.70
2018-07-24T06:36:35.438Z,7.70
2018-07-24T06:37:35.417Z,4.70
2018-07-24T06:38:35.404Z,4.50
2018-07-24T06:39:35.402Z,2.50
2018-07-24T06:40:35.383Z,3.50
2018-07-24T06:41:35.371Z,3.50
2018-07-24T06:42:35.360Z,6.20
2018-07-24T06:43:35.352Z,29.70
2018-07-24T06:44:35.338Z,8.60
2018-07-24T06:45:35.325Z,3.90
2018-07-24T06:46:35.314Z,2.80
2018-07-24T06:47:35.300Z,6.30
2018-07-24T06:48:35.291Z,2.60
2018-07-24T06:49:35.285Z,2.60
2018-07-24T06:50:35.273Z,3.10
2018-07-24T06:51:35.344Z,2.90
2018-07-24T06:52:35.247Z,1.70
2018-07-24T06:53:35.235Z,4.10
2018-07-24T06:54:35.223Z,3.00
2018-07-24T06:55:35.214Z,1.80
2018-07-24T06:56:35.221Z,3.30
2018-07-24T06:57:35.191Z,2.50
2018-07-24T06:58:35.179Z,3.60
2018-07-24T06:59:35.170Z,3.30
2018-07-24T07:00:35.160Z,2.90
2018-07-24T07:01:35.151Z,1.60
2018-07-24T07:02:35.138Z,2.10
2018-07-24T07:03:35.126Z,5.40
2018-07-24T07:04:35.115Z,2.00
2018-07-24T07:05:35.106Z,3.70
2018-07-24T07:06:35.094Z,2.10
2018-07-24T07:07:35.095Z,1.50
2018-07-24T07:08:35.073Z,2.50
2018-07-24T07:09:35.066Z,2.10
2018-07-24T07:10:35.062Z,2.50
2018-07-24T07:11:35.044Z,1.70
2018-07-24T07:12:35.034Z,1.60
2018-07-24T07:13:35.056Z,2.30
2018-07-24T07:14:35.012Z,3.60
2018-07-24T07:15:35.000Z,2.30
2018-07-24T07:16:34.993Z,1.30
2018-07-24T07:17:34.980Z,2.60
2018-07-24T07:18:34.968Z,2.20
2018-07-24T07:19:34.957Z,2.30
2018-07-24T07:20:34.980Z,1.70
2018-07-24T07:21:34.939Z,2.40
2018-07-24T07:22:34.929Z,3.40
2018-07-24T07:23:34.920Z,3.50
2018-07-24T07:24:34.908Z,1.80
2018-07-24T07:25:34.899Z,1.40
2018-07-24T07:26:34.888Z,2.50
2018-07-24T07:27:34.879Z,1.60
2018-07-24T07:28:34.877Z,3.20
2018-07-24T07:29:34.864Z,3.00
2018-07-24T07:30:34.849Z,2.70
2018-07-24T07:31:34.839Z,3.40
2018-07-24T07:32:34.836Z,3.90
2018-07-24T07:33:34.822Z,2.40
2018-07-24T07:34:34.809Z,1.20
2018-07-24T07:35:34.800Z,3.00
2018-07-24T07:36:34.792Z,1.60
2018-07-24T07:37:34.782Z,1.60
2018-07-24T07:38:34.771Z,2.40
2018-07-24T07:39:34.767Z,3.80
2018-07-24T07:40:34.754Z,1.10
2018-07-24T07:41:34.744Z,1.50
2018-07-24T07:42:34.734Z,3.80
2018-07-24T07:43:34.729Z,3.20
2018-07-24T07:44:34.767Z,1.30
2018-07-24T07:45:34.711Z,4.00
2018-07-24T07:46:34.696Z,2.50
2018-07-24T07:47:34.688Z,2.20
2018-07-24T07:48:34.680Z,1.90
2018-07-24T07:49:34.670Z,39.10
2018-07-24T07:50:34.668Z,165.10
2018-07-24T07:51:34.689Z,112.80
2018-07-24T07:52:34.729Z,18.00
2018-07-24T07:53:34.635Z,23.80
2018-07-24T07:54:34.625Z,16.10
2018-07-24T07:55:34.617Z,7.10
2018-07-24T07:56:34.613Z,4.10
2018-07-24T07:57:34.604Z,2.50
2018-07-24T07:58:34.594Z,1.80
2018-07-24T07:59:34.582Z,3.60
2018-07-24T08:00:34.579Z,1.30
2018-07-24T08:01:34.567Z,1.80
2018-07-24T08:02:34.612Z,1.80
2018-07-24T08:03:34.545Z,1.40
2018-07-24T08:04:34.538Z,2.60
2018-07-24T08:05:34.529Z,1.60
2018-07-24T08:06:34.525Z,1.60
2018-07-24T08:07:34.511Z,1.60
2018-07-24T08:08:34.503Z,2.30
2018-07-24T08:09:34.497Z,1.60
2018-07-24T08:10:34.487Z,2.40
2018-07-24T08:11:34.478Z,1.70
2018-07-24T08:12:34.473Z,47.00
2018-07-24T08:13:34.462Z,44.70
2018-07-24T08:14:34.453Z,8.80
2018-07-24T08:15:34.448Z,15.00
2018-07-24T08:16:34.441Z,28.30
2018-07-24T08:17:34.432Z,4.10
2018-07-24T08:18:34.429Z,4.00
2018-07-24T08:19:34.414Z,2.60
2018-07-24T08:20:34.404Z,2.10
2018-07-24T08:21:34.401Z,3.30
2018-07-24T08:22:34.393Z,2.30
2018-07-24T08:23:34.379Z,2.30
2018-07-24T08:24:34.371Z,1.20
2018-07-24T08:25:34.363Z,2.50
2018-07-24T08:26:34.362Z,1.80
2018-07-24T08:27:34.346Z,2.80
2018-07-24T08:28:34.340Z,0.90
2018-07-24T08:29:34.331Z,1.50
2018-07-24T08:30:34.323Z,4.20
2018-07-24T08:31:34.317Z,0.90
2018-07-24T08:32:34.323Z,1.10
2018-07-24T08:33:34.333Z,3.00
2018-07-24T08:34:34.291Z,0.90
2018-07-24T08:35:34.285Z,0.90
2018-07-24T08:36:34.277Z,1.70
2018-07-24T08:37:34.273Z,1.50
2018-07-24T08:38:34.262Z,1.60
2018-07-24T08:39:34.253Z,1.10
2018-07-24T08:40:34.245Z,1.60
2018-07-24T08:41:34.240Z,0.90
2018-07-24T08:42:34.239Z,0.90
2018-07-24T08:43:34.223Z,4.00
2018-07-24T08:44:34.217Z,1.20
2018-07-24T08:45:34.211Z,2.40
2018-07-24T08:46:34.200Z,2.40
2018-07-24T08:47:34.199Z,2.40
2018-07-24T08:48:34.190Z,1.30
2018-07-24T08:49:34.177Z,1.90
2018-07-24T08:50:34.170Z,2.80
2018-07-24T08:51:34.164Z,1.40
2018-07-24T08:52:34.275Z,1.90
2018-07-24T08:53:34.392Z,1.20
2018-07-24T08:54:34.297Z,2.70
2018-07-24T08:55:34.524Z,2.40
2018-07-24T08:56:34.127Z,2.10
2018-07-24T08:57:34.170Z,1.50
2018-07-24T08:58:34.112Z,2.70
2018-07-24T08:59:34.105Z,1.50
2018-07-24T09:00:34.166Z,1.60
2018-07-24T09:01:34.091Z,0.80
2018-07-24T09:02:34.084Z,2.20
2018-07-24T09:03:34.180Z,2.50
2018-07-24T09:04:34.069Z,2.80
2018-07-24T09:05:34.062Z,2.20
2018-07-24T09:06:34.055Z,2.60
2018-07-24T09:07:34.055Z,1.60
2018-07-24T09:08:34.042Z,1.10
2018-07-24T09:09:34.034Z,2.00
2018-07-24T09:10:34.028Z,1.80
2018-07-24T09:11:34.020Z,1.70
2018-07-24T09:12:34.016Z,1.80
2018-07-24T09:13:34.009Z,2.10
2018-07-24T09:14:33.999Z,2.90
2018-07-24T09:15:33.997Z,2.80
2018-07-24T09:16:33.985Z,1.40
2018-07-24T09:17:33.978Z,2.40
2018-07-24T09:18:33.971Z,1.60
2018-07-24T09:19:33.966Z,2.90
2018-07-24T09:20:33.957Z,1.50
2018-07-24T09:21:33.955Z,4.10
2018-07-24T09:22:33.944Z,1.60
2018-07-24T09:23:33.938Z,1.90
2018-07-24T09:24:33.931Z,2.80
2018-07-24T09:25:33.924Z,3.00
2018-07-24T09:26:33.915Z,2.20
2018-07-24T09:27:33.909Z,0.90
2018-07-24T09:28:33.904Z,0.90
2018-07-24T09:29:33.898Z,1.60
2018-07-24T09:30:33.919Z,2.00
2018-07-24T09:31:33.887Z,1.50
2018-07-24T09:32:33.883Z,4.50
2018-07-24T09:33:33.870Z,2.00
2018-07-24T09:34:33.864Z,2.40
2018-07-24T09:35:33.858Z,1.80
2018-07-24T09:36:33.856Z,1.80
2018-07-24T09:37:33.851Z,2.40
2018-07-24T09:38:33.841Z,1.10
2018-07-24T09:39:33.840Z,0.90
2018-07-24T09:40:33.901Z,1.60
2018-07-24T09:41:33.829Z,3.40
2018-07-24T09:42:33.820Z,1.10
2018-07-24T09:43:33.812Z,2.30
2018-07-24T09:44:33.818Z,0.80
2018-07-24T09:45:33.800Z,4.20
2018-07-24T09:46:33.789Z,1.80
2018-07-24T09:47:33.784Z,2.40
2018-07-24T09:48:33.779Z,2.00
2018-07-24T09:49:33.784Z,1.60
2018-07-24T09:50:33.774Z,1.90
2018-07-24T09:51:33.762Z,1.70
2018-07-24T09:52:33.756Z,1.70
2018-07-24T09:53:33.751Z,1.30
2018-07-24T09:54:33.754Z,1.90
2018-07-24T09:55:33.741Z,1.90
2018-07-24T09:56:33.732Z,2.20
2018-07-24T09:57:33.727Z,2.10
2018-07-24T09:58:33.719Z,1.70
2018-07-24T09:59:33.717Z,2.40
2018-07-24T10:00:33.709Z,3.10
2018-07-24T10:01:33.702Z,2.20
2018-07-24T10:02:33.697Z,2.50
2018-07-24T10:03:33.692Z,2.10
2018-07-24T10:04:33.686Z,2.70
2018-07-24T10:05:33.683Z,1.20
2018-07-24T10:06:33.675Z,1.40
2018-07-24T10:07:33.666Z,2.10
2018-07-24T10:08:33.666Z,1.20
2018-07-24T10:09:33.657Z,0.70
2018-07-24T10:10:33.650Z,1.10
2018-07-24T10:11:33.644Z,1.50
2018-07-24T10:12:33.652Z,1.00
2018-07-24T10:13:33.634Z,1.00
2018-07-24T10:14:33.633Z,1.70
2018-07-24T10:15:33.622Z,1.70
2018-07-24T10:16:33.684Z,1.50
2018-07-24T10:17:33.611Z,2.90
2018-07-24T10:18:33.602Z,1.50
2018-07-24T10:19:33.597Z,1.70
2018-07-24T10:20:33.595Z,1.50
2018-07-24T10:21:33.587Z,1.80
2018-07-24T10:22:33.577Z,2.10
2018-07-24T10:23:33.578Z,1.50
2018-07-24T10:24:33.645Z,1.50
2018-07-24T10:25:33.576Z,0.70
2018-07-24T10:26:33.555Z,1.10
2018-07-24T10:27:33.551Z,1.00
2018-07-24T10:28:33.546Z,1.40
2018-07-24T10:29:33.539Z,1.60
2018-07-24T10:30:33.533Z,2.00
2018-07-24T10:31:33.529Z,1.10
2018-07-24T10:32:33.521Z,2.90
2018-07-24T10:33:33.516Z,2.10
2018-07-24T10:34:33.508Z,1.50
2018-07-24T10:35:33.505Z,2.60
2018-07-24T10:36:33.584Z,1.40
2018-07-24T10:37:33.494Z,2.80
2018-07-24T10:38:33.488Z,8.50
2018-07-24T10:39:33.481Z,11.80
2018-07-24T10:40:33.481Z,1.80
2018-07-24T10:41:33.473Z,2.80
2018-07-24T10:42:33.465Z,2.80
2018-07-24T10:43:33.457Z,2.30
2018-07-24T10:44:33.478Z,1.00
2018-07-24T10:45:33.451Z,4.20
2018-07-24T10:46:33.447Z,3.60
2018-07-24T10:47:33.439Z,2.10
2018-07-24T10:48:33.430Z,1.20
2018-07-24T10:49:33.429Z,1.60
2018-07-24T10:50:33.428Z,1.00
2018-07-24T10:51:33.440Z,2.00
2018-07-24T10:52:33.428Z,2.10
2018-07-24T10:53:33.403Z,1.90
2018-07-24T10:54:33.399Z,29.00
2018-07-24T10:55:33.397Z,5.40
2018-07-24T10:56:33.388Z,2.30
2018-07-24T10:57:33.381Z,0.80
2018-07-24T10:58:33.376Z,1.70
2018-07-24T10:59:33.373Z,0.70
2018-07-24T11:00:33.366Z,6.70
2018-07-24T11:01:33.360Z,1.10
2018-07-24T11:02:33.356Z,1.10
2018-07-24T11:03:33.350Z,1.30
2018-07-24T11:04:33.344Z,2.80
2018-07-24T11:05:33.345Z,1.60
2018-07-24T11:06:33.334Z,3.00
2018-07-24T11:07:33.329Z,1.50
2018-07-24T11:08:33.330Z,1.60
2018-07-24T11:09:33.319Z,1.30
2018-07-24T11:10:33.314Z,1.40
2018-07-24T11:11:33.310Z,1.60
2018-07-24T11:12:33.307Z,1.20
2018-07-24T11:13:33.298Z,2.60
2018-07-24T11:14:33.297Z,2.20
2018-07-24T11:15:33.297Z,2.70
2018-07-24T11:16:33.331Z,2.40
2018-07-24T11:17:33.279Z,1.40
2018-07-24T11:18:33.274Z,2.10
2018-07-24T11:19:33.268Z,1.40
2018-07-24T11:20:33.263Z,1.80
2018-07-24T11:21:33.260Z,1.00
2018-07-24T11:22:33.362Z,0.80
2018-07-24T11:23:33.252Z,2.70
2018-07-24T11:24:33.242Z,3.60
2018-07-24T11:25:33.248Z,1.60
2018-07-24T11:26:33.232Z,1.80
2018-07-24T11:27:33.229Z,2.10
2018-07-24T11:28:33.224Z,3.00
2018-07-24T11:29:33.223Z,2.20
2018-07-24T11:30:33.215Z,1.60
2018-07-24T11:31:33.210Z,1.30
2018-07-24T11:32:33.213Z,1.20
2018-07-24T11:33:33.284Z,2.50
2018-07-24T11:34:33.192Z,3.20
2018-07-24T11:35:33.257Z,3.30
2018-07-24T11:36:33.185Z,1.20
2018-07-24T11:37:33.182Z,1.70
2018-07-24T11:38:33.189Z,1.30
2018-07-24T11:39:33.168Z,2.50
2018-07-24T11:40:33.164Z,1.90
2018-07-24T11:41:33.160Z,1.00
2018-07-24T11:42:33.161Z,2.10
2018-07-24T11:43:33.148Z,1.70
2018-07-24T11:44:33.145Z,3.20
2018-07-24T11:45:33.140Z,2.90
2018-07-24T11:46:33.166Z,1.70
2018-07-24T11:47:33.129Z,1.50
2018-07-24T11:48:33.125Z,1.70
2018-07-24T11:49:33.122Z,3.10
2018-07-24T11:50:33.117Z,0.80
2018-07-24T11:51:33.170Z,1.70
2018-07-24T11:52:33.104Z,2.50
2018-07-24T11:53:33.102Z,2.50
2018-07-24T11:54:33.095Z,2.00
2018-07-24T11:55:33.101Z,1.60
2018-07-24T11:56:33.096Z,1.30
2018-07-24T11:57:33.125Z,1.40
2018-07-24T11:58:33.126Z,1.10
2018-07-24T11:59:33.080Z,32.10
2018-07-24T12:00:33.067Z,12.70
2018-07-24T12:01:33.062Z,3.30
2018-07-24T12:02:33.057Z,1.60
2018-07-24T12:03:33.084Z,3.60
2018-07-24T12:04:33.049Z,1.10
2018-07-24T12:05:33.043Z,1.10
2018-07-24T12:06:33.039Z,3.60
2018-07-24T12:07:33.036Z,1.70
2018-07-24T12:08:33.032Z,3.20
2018-07-24T12:09:33.023Z,3.90
2018-07-24T12:10:33.018Z,1.40
2018-07-24T12:11:33.079Z,1.10
2018-07-24T12:12:33.006Z,2.00
2018-07-24T12:13:33.003Z,1.30
2018-07-24T12:14:33.001Z,3.20
2018-07-24T12:15:33.001Z,1.60
2018-07-24T12:16:33.010Z,2.10
2018-07-24T12:17:32.989Z,7.20
2018-07-24T12:18:32.998Z,4.30
2018-07-24T12:19:32.991Z,1.50
2018-07-24T12:20:32.975Z,1.60
2018-07-24T12:21:32.973Z,0.70
2018-07-24T12:22:32.973Z,2.50
2018-07-24T12:23:32.966Z,2.10
2018-07-24T12:24:32.963Z,2.60
2018-07-24T12:25:32.967Z,2.50
2018-07-24T12:26:32.955Z,3.10
2018-07-24T12:27:32.952Z,3.00
2018-07-24T12:28:32.954Z,1.00
2018-07-24T12:29:32.949Z,2.00
2018-07-24T12:30:32.942Z,0.80
2018-07-24T12:31:32.948Z,1.50
2018-07-24T12:32:32.939Z,1.90
2018-07-24T12:33:32.935Z,1.30
2018-07-24T12:34:32.931Z,1.70
2018-07-24T12:35:32.928Z,1.40
2018-07-24T12:36:32.929Z,2.00
2018-07-24T12:37:32.926Z,3.20
2018-07-24T12:38:32.917Z,1.60
2018-07-24T12:39:32.915Z,3.40
2018-07-24T12:40:32.912Z,1.10
2018-07-24T12:41:32.910Z,2.20
2018-07-24T12:43:32.972Z,2.00
2018-07-24T12:45:32.897Z,2.40
2018-07-24T12:46:32.890Z,1.80
2018-07-24T12:47:32.888Z,1.20
2018-07-24T12:48:32.891Z,37.30
2018-07-24T12:49:32.882Z,177.80
2018-07-24T12:50:32.877Z,128.30
2018-07-24T12:51:32.872Z,52.30
2018-07-24T12:52:32.944Z,10.80
2018-07-24T12:53:32.866Z,3.70
2018-07-24T12:54:32.868Z,3.30
2018-07-24T12:55:32.891Z,8.20
2018-07-24T12:56:32.857Z,1.30
2018-07-24T12:57:32.853Z,2.00
2018-07-24T12:58:32.849Z,2.10
2018-07-24T12:59:32.855Z,1.60
2018-07-24T13:00:32.846Z,2.20
2018-07-24T13:01:32.841Z,10.40
2018-07-24T13:02:32.838Z,8.30
2018-07-24T13:03:32.838Z,4.20
2018-07-24T13:04:32.835Z,0.90
2018-07-24T13:05:32.840Z,2.60
2018-07-24T13:06:32.832Z,2.10
2018-07-24T13:07:32.829Z,3.80
2018-07-24T13:08:32.827Z,1.90
2018-07-24T13:09:32.816Z,3.70
2018-07-24T13:10:32.811Z,4.40
2018-07-24T13:11:32.810Z,7.30
2018-07-24T13:12:32.805Z,2.50
2018-07-24T13:13:32.803Z,1.00
2018-07-24T13:14:32.798Z,5.00
2018-07-24T13:15:32.796Z,4.60
2018-07-24T13:16:32.797Z,3.60
2018-07-24T13:17:32.792Z,3.20
2018-07-24T13:18:32.788Z,0.60